Terminal Aerodrome Forecast
Issued by NWS

Home | Current Version | Previous Version | Text Only | Print | Product List | Glossary On
Versions: 1 2 3 4 5 6 7 8 9 10 11 12 13 14 15 16
000
FTUS43 KGRB 271740
TAFATW
TAF
KATW 271740Z 2718/2818 02005KT P6SM -SHRA SCT030 BKN060
     FM271810 02009KT P6SM SCT040 BKN060
      TEMPO 2723/2802 -SHRA BKN040
     FM280200 04009KT 5SM -SHRA BKN025 OVC040
     FM280700 02006KT 6SM BR VCSH BKN020
     FM281400 03008KT P6SM VCSH BKN035=

USA.gov is the U.S. government's official web portal to all federal, state and local government web resources and services.